sensor_id;sensor_type;location;lat;lon;timestamp;P1;durP1;ratioP1;P2;durP2;ratioP2
26634;SDS011;14490;54.208;37.686;2022-07-23T00:01:23;5.60;;;3.25;;
26634;SDS011;14490;54.208;37.686;2022-07-23T00:03:52;7.30;;;3.45;;
26634;SDS011;14490;54.208;37.686;2022-07-23T00:06:20;4.97;;;4.10;;
26634;SDS011;14490;54.208;37.686;2022-07-23T00:08:48;4.05;;;3.65;;
26634;SDS011;14490;54.208;37.686;2022-07-23T00:11:16;10.85;;;4.63;;
26634;SDS011;14490;54.208;37.686;2022-07-23T00:13:44;10.70;;;4.78;;
26634;SDS011;14490;54.208;37.686;2022-07-23T00:16:12;5.13;;;3.90;;
26634;SDS011;14490;54.208;37.686;2022-07-23T00:18:41;5.47;;;4.40;;
26634;SDS011;14490;54.208;37.686;2022-07-23T00:21:09;4.93;;;4.45;;
26634;SDS011;14490;54.208;37.686;2022-07-23T00:23:37;8.75;;;4.45;;
26634;SDS011;14490;54.208;37.686;2022-07-23T00:26:04;6.35;;;4.60;;
26634;SDS011;14490;54.208;37.686;2022-07-23T00:28:33;9.38;;;5.00;;
26634;SDS011;14490;54.208;37.686;2022-07-23T00:31:00;8.38;;;4.90;;
26634;SDS011;14490;54.208;37.686;2022-07-23T00:33:28;5.57;;;4.60;;
26634;SDS011;14490;54.208;37.686;2022-07-23T00:35:57;7.68;;;4.65;;
26634;SDS011;14490;54.208;37.686;2022-07-23T00:38:25;6.90;;;5.07;;
26634;SDS011;14490;54.208;37.686;2022-07-23T00:40:53;5.53;;;5.03;;
26634;SDS011;14490;54.208;37.686;2022-07-23T00:43:20;8.73;;;5.05;;
26634;SDS011;14490;54.208;37.686;2022-07-23T00:45:48;6.03;;;5.07;;
26634;SDS011;14490;54.208;37.686;2022-07-23T00:48:16;7.85;;;5.15;;
26634;SDS011;14490;54.208;37.686;2022-07-23T00:50:44;5.38;;;4.38;;
26634;SDS011;14490;54.208;37.686;2022-07-23T00:53:13;7.47;;;4.30;;
26634;SDS011;14490;54.208;37.686;2022-07-23T00:55:42;6.90;;;4.88;;
26634;SDS011;14490;54.208;37.686;2022-07-23T00:58:10;7.13;;;4.53;;
26634;SDS011;14490;54.208;37.686;2022-07-23T01:00:39;6.60;;;5.07;;
26634;SDS011;14490;54.208;37.686;2022-07-23T01:03:07;5.40;;;4.90;;
26634;SDS011;14490;54.208;37.686;2022-07-23T01:05:34;9.75;;;5.03;;
26634;SDS011;14490;54.208;37.686;2022-07-23T01:08:02;6.95;;;5.05;;
26634;SDS011;14490;54.208;37.686;2022-07-23T01:10:33;8.35;;;5.43;;
26634;SDS011;14490;54.208;37.686;2022-07-23T01:13:02;7.07;;;4.88;;
26634;SDS011;14490;54.208;37.686;2022-07-23T01:15:32;7.30;;;5.13;;
26634;SDS011;14490;54.208;37.686;2022-07-23T01:18:02;10.13;;;5.40;;
26634;SDS011;14490;54.208;37.686;2022-07-23T01:20:31;6.47;;;4.60;;
26634;SDS011;14490;54.208;37.686;2022-07-23T01:23:01;10.85;;;4.55;;
26634;SDS011;14490;54.208;37.686;2022-07-23T01:25:28;6.55;;;4.68;;
26634;SDS011;14490;54.208;37.686;2022-07-23T01:27:56;7.68;;;5.13;;
26634;SDS011;14490;54.208;37.686;2022-07-23T01:30:24;8.68;;;4.38;;
26634;SDS011;14490;54.208;37.686;2022-07-23T01:32:51;5.22;;;4.32;;
26634;SDS011;14490;54.208;37.686;2022-07-23T01:35:19;9.65;;;4.65;;
26634;SDS011;14490;54.208;37.686;2022-07-23T01:37:47;7.22;;;4.70;;
26634;SDS011;14490;54.208;37.686;2022-07-23T01:40:16;9.80;;;4.90;;
26634;SDS011;14490;54.208;37.686;2022-07-23T01:42:44;6.68;;;4.38;;
26634;SDS011;14490;54.208;37.686;2022-07-23T01:45:12;6.25;;;4.13;;
26634;SDS011;14490;54.208;37.686;2022-07-23T01:47:43;6.65;;;4.55;;
26634;SDS011;14490;54.208;37.686;2022-07-23T01:50:11;9.70;;;4.82;;
26634;SDS011;14490;54.208;37.686;2022-07-23T01:52:39;6.93;;;4.22;;
26634;SDS011;14490;54.208;37.686;2022-07-23T01:55:07;4.30;;;4.00;;
26634;SDS011;14490;54.208;37.686;2022-07-23T01:57:36;4.95;;;4.47;;
26634;SDS011;14490;54.208;37.686;2022-07-23T02:00:05;8.30;;;4.00;;
26634;SDS011;14490;54.208;37.686;2022-07-23T02:02:34;7.00;;;4.13;;
26634;SDS011;14490;54.208;37.686;2022-07-23T02:05:01;7.53;;;4.70;;
26634;SDS011;14490;54.208;37.686;2022-07-23T02:07:29;6.88;;;4.25;;
26634;SDS011;14490;54.208;37.686;2022-07-23T02:09:57;6.43;;;5.68;;
26634;SDS011;14490;54.208;37.686;2022-07-23T02:12:25;6.88;;;4.25;;
26634;SDS011;14490;54.208;37.686;2022-07-23T02:14:54;6.22;;;4.13;;
26634;SDS011;14490;54.208;37.686;2022-07-23T02:17:21;5.65;;;3.55;;
26634;SDS011;14490;54.208;37.686;2022-07-23T02:19:49;4.55;;;4.18;;
26634;SDS011;14490;54.208;37.686;2022-07-23T02:22:17;9.80;;;5.90;;
26634;SDS011;14490;54.208;37.686;2022-07-23T02:24:45;7.47;;;4.50;;
26634;SDS011;14490;54.208;37.686;2022-07-23T02:27:12;6.30;;;4.68;;
26634;SDS011;14490;54.208;37.686;2022-07-23T02:29:40;6.10;;;4.68;;
26634;SDS011;14490;54.208;37.686;2022-07-23T02:32:09;6.68;;;4.85;;
26634;SDS011;14490;54.208;37.686;2022-07-23T02:34:37;5.15;;;4.22;;
26634;SDS011;14490;54.208;37.686;2022-07-23T02:37:05;4.60;;;4.20;;
26634;SDS011;14490;54.208;37.686;2022-07-23T02:39:33;5.20;;;4.50;;
26634;SDS011;14490;54.208;37.686;2022-07-23T02:42:01;6.43;;;4.78;;
26634;SDS011;14490;54.208;37.686;2022-07-23T02:44:29;7.65;;;4.82;;
26634;SDS011;14490;54.208;37.686;2022-07-23T02:46:57;5.03;;;4.40;;
26634;SDS011;14490;54.208;37.686;2022-07-23T02:49:26;6.40;;;3.67;;
26634;SDS011;14490;54.208;37.686;2022-07-23T02:51:54;10.43;;;4.43;;
26634;SDS011;14490;54.208;37.686;2022-07-23T02:54:21;7.40;;;4.43;;
26634;SDS011;14490;54.208;37.686;2022-07-23T02:56:49;5.93;;;4.22;;
26634;SDS011;14490;54.208;37.686;2022-07-23T02:59:17;6.75;;;4.50;;
26634;SDS011;14490;54.208;37.686;2022-07-23T03:01:45;8.10;;;3.85;;
26634;SDS011;14490;54.208;37.686;2022-07-23T03:04:12;12.52;;;3.92;;
26634;SDS011;14490;54.208;37.686;2022-07-23T03:06:42;7.30;;;4.32;;
26634;SDS011;14490;54.208;37.686;2022-07-23T03:09:09;6.57;;;4.28;;
26634;SDS011;14490;54.208;37.686;2022-07-23T03:11:37;10.18;;;4.03;;
26634;SDS011;14490;54.208;37.686;2022-07-23T03:14:05;6.40;;;3.85;;
26634;SDS011;14490;54.208;37.686;2022-07-23T03:16:33;6.47;;;3.78;;
26634;SDS011;14490;54.208;37.686;2022-07-23T03:19:01;5.35;;;3.90;;
26634;SDS011;14490;54.208;37.686;2022-07-23T03:21:29;9.27;;;3.63;;
26634;SDS011;14490;54.208;37.686;2022-07-23T03:23:58;8.55;;;4.22;;
26634;SDS011;14490;54.208;37.686;2022-07-23T03:26:25;4.38;;;3.75;;
26634;SDS011;14490;54.208;37.686;2022-07-23T03:28:53;8.32;;;4.05;;
26634;SDS011;14490;54.208;37.686;2022-07-23T03:31:21;17.45;;;3.90;;
26634;SDS011;14490;54.208;37.686;2022-07-23T03:33:48;9.38;;;3.42;;
26634;SDS011;14490;54.208;37.686;2022-07-23T03:36:16;7.95;;;3.75;;
26634;SDS011;14490;54.208;37.686;2022-07-23T03:38:44;5.10;;;3.72;;
26634;SDS011;14490;54.208;37.686;2022-07-23T03:41:13;5.32;;;4.05;;
26634;SDS011;14490;54.208;37.686;2022-07-23T03:43:41;5.82;;;4.03;;
26634;SDS011;14490;54.208;37.686;2022-07-23T03:46:08;5.90;;;4.00;;
26634;SDS011;14490;54.208;37.686;2022-07-23T03:48:36;5.15;;;3.42;;
26634;SDS011;14490;54.208;37.686;2022-07-23T03:51:04;6.63;;;3.53;;
26634;SDS011;14490;54.208;37.686;2022-07-23T03:53:31;7.45;;;3.58;;
26634;SDS011;14490;54.208;37.686;2022-07-23T03:55:59;6.18;;;3.03;;
26634;SDS011;14490;54.208;37.686;2022-07-23T03:58:28;6.00;;;3.80;;
26634;SDS011;14490;54.208;37.686;2022-07-23T04:00:56;5.60;;;3.55;;
26634;SDS011;14490;54.208;37.686;2022-07-23T04:03:24;4.45;;;3.30;;
26634;SDS011;14490;54.208;37.686;2022-07-23T04:05:52;6.20;;;3.38;;
26634;SDS011;14490;54.208;37.686;2022-07-23T04:08:20;5.35;;;3.42;;
26634;SDS011;14490;54.208;37.686;2022-07-23T04:10:47;5.50;;;3.28;;
26634;SDS011;14490;54.208;37.686;2022-07-23T04:13:15;4.57;;;3.30;;
26634;SDS011;14490;54.208;37.686;2022-07-23T04:15:44;8.18;;;3.60;;
26634;SDS011;14490;54.208;37.686;2022-07-23T04:18:12;7.78;;;3.17;;
26634;SDS011;14490;54.208;37.686;2022-07-23T04:20:42;8.20;;;3.72;;
26634;SDS011;14490;54.208;37.686;2022-07-23T04:23:10;12.80;;;4.22;;
26634;SDS011;14490;54.208;37.686;2022-07-23T04:25:37;4.78;;;3.22;;
26634;SDS011;14490;54.208;37.686;2022-07-23T04:28:05;5.25;;;3.70;;
26634;SDS011;14490;54.208;37.686;2022-07-23T04:30:33;9.18;;;4.10;;
26634;SDS011;14490;54.208;37.686;2022-07-23T04:33:03;4.03;;;3.30;;
26634;SDS011;14490;54.208;37.686;2022-07-23T04:35:32;7.22;;;3.90;;
26634;SDS011;14490;54.208;37.686;2022-07-23T04:38:00;5.78;;;3.33;;
26634;SDS011;14490;54.208;37.686;2022-07-23T04:40:28;4.40;;;2.88;;
26634;SDS011;14490;54.208;37.686;2022-07-23T04:42:56;8.40;;;3.25;;
26634;SDS011;14490;54.208;37.686;2022-07-23T04:45:24;3.42;;;2.83;;
26634;SDS011;14490;54.208;37.686;2022-07-23T04:47:52;7.03;;;4.05;;
26634;SDS011;14490;54.208;37.686;2022-07-23T04:50:22;4.88;;;2.85;;
26634;SDS011;14490;54.208;37.686;2022-07-23T04:52:50;8.43;;;2.88;;
26634;SDS011;14490;54.208;37.686;2022-07-23T04:55:17;5.85;;;3.30;;
26634;SDS011;14490;54.208;37.686;2022-07-23T04:57:45;6.63;;;4.07;;
26634;SDS011;14490;54.208;37.686;2022-07-23T05:00:13;5.68;;;3.25;;
26634;SDS011;14490;54.208;37.686;2022-07-23T05:02:42;12.68;;;3.60;;
26634;SDS011;14490;54.208;37.686;2022-07-23T05:05:10;16.00;;;4.10;;
26634;SDS011;14490;54.208;37.686;2022-07-23T05:07:39;15.00;;;5.78;;
26634;SDS011;14490;54.208;37.686;2022-07-23T05:10:07;7.78;;;3.22;;
26634;SDS011;14490;54.208;37.686;2022-07-23T05:12:35;5.45;;;3.33;;
26634;SDS011;14490;54.208;37.686;2022-07-23T05:15:03;3.72;;;3.33;;
26634;SDS011;14490;54.208;37.686;2022-07-23T05:17:32;4.30;;;2.70;;
26634;SDS011;14490;54.208;37.686;2022-07-23T05:20:01;3.88;;;2.60;;
26634;SDS011;14490;54.208;37.686;2022-07-23T05:22:31;15.13;;;3.28;;
26634;SDS011;14490;54.208;37.686;2022-07-23T05:25:01;5.25;;;2.70;;
26634;SDS011;14490;54.208;37.686;2022-07-23T05:27:30;3.93;;;2.80;;
26634;SDS011;14490;54.208;37.686;2022-07-23T05:29:57;3.08;;;2.42;;
26634;SDS011;14490;54.208;37.686;2022-07-23T05:32:25;5.75;;;2.58;;
26634;SDS011;14490;54.208;37.686;2022-07-23T05:34:53;6.50;;;2.72;;
26634;SDS011;14490;54.208;37.686;2022-07-23T05:37:21;6.47;;;2.90;;
26634;SDS011;14490;54.208;37.686;2022-07-23T05:39:49;10.10;;;2.95;;
26634;SDS011;14490;54.208;37.686;2022-07-23T05:42:18;9.27;;;2.85;;
26634;SDS011;14490;54.208;37.686;2022-07-23T05:44:45;7.63;;;3.42;;
26634;SDS011;14490;54.208;37.686;2022-07-23T05:47:13;6.30;;;2.88;;
26634;SDS011;14490;54.208;37.686;2022-07-23T05:49:41;9.20;;;3.10;;
26634;SDS011;14490;54.208;37.686;2022-07-23T05:52:09;5.35;;;2.90;;
26634;SDS011;14490;54.208;37.686;2022-07-23T05:54:37;2.80;;;2.60;;
26634;SDS011;14490;54.208;37.686;2022-07-23T05:57:05;3.80;;;2.80;;
26634;SDS011;14490;54.208;37.686;2022-07-23T05:59:34;11.80;;;2.63;;
26634;SDS011;14490;54.208;37.686;2022-07-23T06:02:02;3.47;;;2.60;;
26634;SDS011;14490;54.208;37.686;2022-07-23T06:04:30;3.55;;;2.65;;
26634;SDS011;14490;54.208;37.686;2022-07-23T06:06:57;3.30;;;2.63;;
26634;SDS011;14490;54.208;37.686;2022-07-23T06:09:25;11.35;;;2.42;;
26634;SDS011;14490;54.208;37.686;2022-07-23T06:11:53;4.40;;;2.55;;
26634;SDS011;14490;54.208;37.686;2022-07-23T06:14:21;4.05;;;2.53;;
26634;SDS011;14490;54.208;37.686;2022-07-23T06:16:50;7.47;;;3.20;;
26634;SDS011;14490;54.208;37.686;2022-07-23T06:19:18;7.20;;;2.20;;
26634;SDS011;14490;54.208;37.686;2022-07-23T06:21:46;5.22;;;2.88;;
26634;SDS011;14490;54.208;37.686;2022-07-23T06:24:13;6.57;;;2.58;;
26634;SDS011;14490;54.208;37.686;2022-07-23T06:26:41;4.57;;;2.28;;
26634;SDS011;14490;54.208;37.686;2022-07-23T06:29:09;3.88;;;1.83;;
26634;SDS011;14490;54.208;37.686;2022-07-23T06:31:36;2.42;;;2.22;;
26634;SDS011;14490;54.208;37.686;2022-07-23T06:34:06;4.95;;;2.83;;
26634;SDS011;14490;54.208;37.686;2022-07-23T06:36:34;3.10;;;2.30;;
26634;SDS011;14490;54.208;37.686;2022-07-23T06:39:01;2.58;;;2.17;;
26634;SDS011;14490;54.208;37.686;2022-07-23T06:41:29;6.88;;;2.30;;
26634;SDS011;14490;54.208;37.686;2022-07-23T06:43:57;2.17;;;1.98;;
26634;SDS011;14490;54.208;37.686;2022-07-23T06:46:25;2.90;;;1.73;;
26634;SDS011;14490;54.208;37.686;2022-07-23T06:48:52;2.70;;;2.00;;
26634;SDS011;14490;54.208;37.686;2022-07-23T06:51:21;2.30;;;2.10;;
26634;SDS011;14490;54.208;37.686;2022-07-23T06:53:49;4.32;;;1.95;;
26634;SDS011;14490;54.208;37.686;2022-07-23T06:56:17;2.53;;;2.20;;
26634;SDS011;14490;54.208;37.686;2022-07-23T06:58:45;3.28;;;2.45;;
26634;SDS011;14490;54.208;37.686;2022-07-23T07:01:12;5.80;;;2.20;;
26634;SDS011;14490;54.208;37.686;2022-07-23T07:03:43;7.15;;;2.50;;
26634;SDS011;14490;54.208;37.686;2022-07-23T07:06:11;2.53;;;1.77;;
26634;SDS011;14490;54.208;37.686;2022-07-23T07:08:40;2.78;;;2.38;;
26634;SDS011;14490;54.208;37.686;2022-07-23T07:11:09;4.25;;;2.10;;
26634;SDS011;14490;54.208;37.686;2022-07-23T07:13:37;2.17;;;1.98;;
26634;SDS011;14490;54.208;37.686;2022-07-23T07:16:05;5.70;;;2.15;;
26634;SDS011;14490;54.208;37.686;2022-07-23T07:18:33;3.90;;;2.30;;
26634;SDS011;14490;54.208;37.686;2022-07-23T07:21:01;5.97;;;1.88;;
26634;SDS011;14490;54.208;37.686;2022-07-23T07:23:29;1.50;;;1.40;;
26634;SDS011;14490;54.208;37.686;2022-07-23T07:25:58;1.75;;;1.42;;
26634;SDS011;14490;54.208;37.686;2022-07-23T07:28:26;5.57;;;2.15;;
26634;SDS011;14490;54.208;37.686;2022-07-23T07:30:53;2.17;;;1.75;;
26634;SDS011;14490;54.208;37.686;2022-07-23T07:33:23;4.78;;;2.33;;
26634;SDS011;14490;54.208;37.686;2022-07-23T07:35:51;2.05;;;1.80;;
26634;SDS011;14490;54.208;37.686;2022-07-23T07:38:19;5.13;;;1.63;;
26634;SDS011;14490;54.208;37.686;2022-07-23T07:40:47;2.97;;;1.80;;
26634;SDS011;14490;54.208;37.686;2022-07-23T07:43:16;2.90;;;2.00;;
26634;SDS011;14490;54.208;37.686;2022-07-23T07:45:44;2.17;;;1.70;;
26634;SDS011;14490;54.208;37.686;2022-07-23T07:48:12;2.88;;;1.92;;
26634;SDS011;14490;54.208;37.686;2022-07-23T07:50:39;3.42;;;2.13;;
26634;SDS011;14490;54.208;37.686;2022-07-23T07:53:07;1.98;;;1.75;;
26634;SDS011;14490;54.208;37.686;2022-07-23T07:55:35;2.38;;;1.75;;
26634;SDS011;14490;54.208;37.686;2022-07-23T07:58:03;2.35;;;1.65;;
26634;SDS011;14490;54.208;37.686;2022-07-23T08:00:32;1.90;;;1.77;;
26634;SDS011;14490;54.208;37.686;2022-07-23T08:03:00;3.47;;;1.90;;
26634;SDS011;14490;54.208;37.686;2022-07-23T08:05:29;7.00;;;2.35;;
26634;SDS011;14490;54.208;37.686;2022-07-23T08:07:57;3.70;;;1.95;;
26634;SDS011;14490;54.208;37.686;2022-07-23T08:10:26;4.47;;;1.90;;
26634;SDS011;14490;54.208;37.686;2022-07-23T08:12:56;2.40;;;1.77;;
26634;SDS011;14490;54.208;37.686;2022-07-23T08:15:26;2.13;;;1.80;;
26634;SDS011;14490;54.208;37.686;2022-07-23T08:17:58;2.25;;;1.90;;
26634;SDS011;14490;54.208;37.686;2022-07-23T08:20:26;3.08;;;1.67;;
26634;SDS011;14490;54.208;37.686;2022-07-23T08:22:55;2.08;;;1.85;;
26634;SDS011;14490;54.208;37.686;2022-07-23T08:25:25;7.15;;;1.98;;
26634;SDS011;14490;54.208;37.686;2022-07-23T08:27:56;3.33;;;2.03;;
26634;SDS011;14490;54.208;37.686;2022-07-23T08:30:25;1.90;;;1.80;;
26634;SDS011;14490;54.208;37.686;2022-07-23T08:32:55;3.00;;;1.70;;
26634;SDS011;14490;54.208;37.686;2022-07-23T08:35:27;2.50;;;1.70;;
26634;SDS011;14490;54.208;37.686;2022-07-23T08:37:56;3.13;;;2.27;;
26634;SDS011;14490;54.208;37.686;2022-07-23T08:40:26;2.40;;;2.20;;
26634;SDS011;14490;54.208;37.686;2022-07-23T08:45:25;1.95;;;1.73;;
26634;SDS011;14490;54.208;37.686;2022-07-23T08:47:54;4.43;;;1.80;;
26634;SDS011;14490;54.208;37.686;2022-07-23T08:52:53;4.38;;;2.05;;
26634;SDS011;14490;54.208;37.686;2022-07-23T08:55:22;2.15;;;1.95;;
26634;SDS011;14490;54.208;37.686;2022-07-23T08:57:51;2.65;;;1.83;;
26634;SDS011;14490;54.208;37.686;2022-07-23T09:00:20;1.77;;;1.67;;
26634;SDS011;14490;54.208;37.686;2022-07-23T09:02:49;2.58;;;2.15;;
26634;SDS011;14490;54.208;37.686;2022-07-23T09:05:19;2.05;;;1.85;;
26634;SDS011;14490;54.208;37.686;2022-07-23T09:08:03;2.92;;;2.50;;
26634;SDS011;14490;54.208;37.686;2022-07-23T09:10:49;3.35;;;2.25;;
26634;SDS011;14490;54.208;37.686;2022-07-23T09:13:24;5.10;;;2.28;;
26634;SDS011;14490;54.208;37.686;2022-07-23T09:15:58;4.03;;;2.20;;
26634;SDS011;14490;54.208;37.686;2022-07-23T09:18:32;4.45;;;2.20;;
26634;SDS011;14490;54.208;37.686;2022-07-23T09:21:10;3.58;;;2.20;;
26634;SDS011;14490;54.208;37.686;2022-07-23T09:23:42;2.80;;;2.28;;
26634;SDS011;14490;54.208;37.686;2022-07-23T09:26:18;2.95;;;2.75;;
26634;SDS011;14490;54.208;37.686;2022-07-23T09:28:56;3.25;;;2.53;;
26634;SDS011;14490;54.208;37.686;2022-07-23T09:31:31;2.50;;;2.30;;
26634;SDS011;14490;54.208;37.686;2022-07-23T09:34:08;4.18;;;2.50;;
26634;SDS011;14490;54.208;37.686;2022-07-23T09:36:41;3.53;;;3.20;;
26634;SDS011;14490;54.208;37.686;2022-07-23T09:39:09;3.42;;;2.45;;
26634;SDS011;14490;54.208;37.686;2022-07-23T09:41:39;3.95;;;2.70;;
26634;SDS011;14490;54.208;37.686;2022-07-23T09:44:10;2.80;;;2.25;;
26634;SDS011;14490;54.208;37.686;2022-07-23T09:46:47;3.70;;;2.30;;
26634;SDS011;14490;54.208;37.686;2022-07-23T09:49:17;8.45;;;2.45;;
26634;SDS011;14490;54.208;37.686;2022-07-23T09:51:50;4.45;;;2.90;;
26634;SDS011;14490;54.208;37.686;2022-07-23T09:54:29;2.75;;;2.55;;
26634;SDS011;14490;54.208;37.686;2022-07-23T09:57:01;3.42;;;2.67;;
26634;SDS011;14490;54.208;37.686;2022-07-23T09:59:38;5.63;;;2.60;;
26634;SDS011;14490;54.208;37.686;2022-07-23T10:02:07;3.08;;;2.25;;
26634;SDS011;14490;54.208;37.686;2022-07-23T10:04:38;3.10;;;2.90;;
26634;SDS011;14490;54.208;37.686;2022-07-23T10:07:08;5.75;;;3.10;;
26634;SDS011;14490;54.208;37.686;2022-07-23T10:09:37;3.65;;;3.00;;
26634;SDS011;14490;54.208;37.686;2022-07-23T10:12:09;3.15;;;2.95;;
26634;SDS011;14490;54.208;37.686;2022-07-23T10:14:52;2.83;;;2.63;;
26634;SDS011;14490;54.208;37.686;2022-07-23T10:17:20;3.13;;;2.92;;
26634;SDS011;14490;54.208;37.686;2022-07-23T10:19:48;4.90;;;3.10;;
26634;SDS011;14490;54.208;37.686;2022-07-23T10:22:21;2.97;;;2.78;;
26634;SDS011;14490;54.208;37.686;2022-07-23T10:24:54;3.42;;;3.13;;
26634;SDS011;14490;54.208;37.686;2022-07-23T10:27:37;3.53;;;3.17;;
26634;SDS011;14490;54.208;37.686;2022-07-23T10:30:22;2.95;;;2.65;;
26634;SDS011;14490;54.208;37.686;2022-07-23T10:33:03;4.43;;;3.28;;
26634;SDS011;14490;54.208;37.686;2022-07-23T10:35:47;3.50;;;3.08;;
26634;SDS011;14490;54.208;37.686;2022-07-23T10:38:30;4.60;;;2.90;;
26634;SDS011;14490;54.208;37.686;2022-07-23T10:41:06;4.05;;;3.10;;
26634;SDS011;14490;54.208;37.686;2022-07-23T10:43:34;3.63;;;3.33;;
26634;SDS011;14490;54.208;37.686;2022-07-23T10:46:21;3.92;;;3.58;;
26634;SDS011;14490;54.208;37.686;2022-07-23T10:54:46;3.55;;;3.28;;
26634;SDS011;14490;54.208;37.686;2022-07-23T10:57:16;4.20;;;3.88;;
26634;SDS011;14490;54.208;37.686;2022-07-23T11:02:42;3.47;;;3.05;;
26634;SDS011;14490;54.208;37.686;2022-07-23T11:05:12;3.70;;;3.40;;
26634;SDS011;14490;54.208;37.686;2022-07-23T11:10:47;12.65;;;5.05;;
26634;SDS011;14490;54.208;37.686;2022-07-23T11:13:36;6.65;;;4.10;;
26634;SDS011;14490;54.208;37.686;2022-07-23T11:16:24;6.55;;;3.83;;
26634;SDS011;14490;54.208;37.686;2022-07-23T11:18:53;5.47;;;4.55;;
26634;SDS011;14490;54.208;37.686;2022-07-23T11:21:45;5.38;;;4.20;;
26634;SDS011;14490;54.208;37.686;2022-07-23T11:24:19;4.45;;;4.05;;
26634;SDS011;14490;54.208;37.686;2022-07-23T11:27:02;6.32;;;3.85;;
26634;SDS011;14490;54.208;37.686;2022-07-23T11:29:40;6.85;;;4.80;;
26634;SDS011;14490;54.208;37.686;2022-07-23T11:32:18;12.48;;;5.03;;
26634;SDS011;14490;54.208;37.686;2022-07-23T11:35:18;9.05;;;4.68;;
26634;SDS011;14490;54.208;37.686;2022-07-23T11:37:53;6.35;;;4.70;;
26634;SDS011;14490;54.208;37.686;2022-07-23T11:40:29;5.28;;;4.13;;
26634;SDS011;14490;54.208;37.686;2022-07-23T11:42:59;4.63;;;4.22;;
26634;SDS011;14490;54.208;37.686;2022-07-23T11:45:32;9.18;;;5.35;;
26634;SDS011;14490;54.208;37.686;2022-07-23T11:48:04;4.80;;;4.32;;
26634;SDS011;14490;54.208;37.686;2022-07-23T11:50:34;8.20;;;4.70;;
26634;SDS011;14490;54.208;37.686;2022-07-23T11:53:03;5.43;;;4.28;;
26634;SDS011;14490;54.208;37.686;2022-07-23T11:55:31;5.30;;;4.80;;
26634;SDS011;14490;54.208;37.686;2022-07-23T11:58:01;4.30;;;3.95;;
26634;SDS011;14490;54.208;37.686;2022-07-23T12:00:29;4.97;;;4.50;;
26634;SDS011;14490;54.208;37.686;2022-07-23T12:02:59;5.70;;;5.15;;
26634;SDS011;14490;54.208;37.686;2022-07-23T12:05:29;4.90;;;4.50;;
26634;SDS011;14490;54.208;37.686;2022-07-23T12:08:01;6.55;;;4.40;;
26634;SDS011;14490;54.208;37.686;2022-07-23T12:10:33;5.97;;;4.93;;
26634;SDS011;14490;54.208;37.686;2022-07-23T12:13:06;5.22;;;4.47;;
26634;SDS011;14490;54.208;37.686;2022-07-23T12:15:37;5.88;;;4.60;;
26634;SDS011;14490;54.208;37.686;2022-07-23T12:18:07;6.18;;;5.57;;
26634;SDS011;14490;54.208;37.686;2022-07-23T12:20:38;4.97;;;4.50;;
26634;SDS011;14490;54.208;37.686;2022-07-23T12:25:39;5.22;;;4.80;;
26634;SDS011;14490;54.208;37.686;2022-07-23T12:28:11;5.57;;;5.07;;
26634;SDS011;14490;54.208;37.686;2022-07-23T12:30:41;7.15;;;5.65;;
26634;SDS011;14490;54.208;37.686;2022-07-23T12:33:11;5.10;;;4.10;;
26634;SDS011;14490;54.208;37.686;2022-07-23T12:35:42;5.75;;;5.25;;
26634;SDS011;14490;54.208;37.686;2022-07-23T12:38:13;5.13;;;4.72;;
26634;SDS011;14490;54.208;37.686;2022-07-23T12:40:43;4.75;;;4.35;;
26634;SDS011;14490;54.208;37.686;2022-07-23T12:43:20;5.05;;;4.55;;
26634;SDS011;14490;54.208;37.686;2022-07-23T12:45:49;5.57;;;4.90;;
26634;SDS011;14490;54.208;37.686;2022-07-23T12:48:21;6.95;;;4.85;;
26634;SDS011;14490;54.208;37.686;2022-07-23T12:50:52;5.72;;;5.13;;
26634;SDS011;14490;54.208;37.686;2022-07-23T12:53:22;5.15;;;4.70;;
26634;SDS011;14490;54.208;37.686;2022-07-23T12:55:56;5.45;;;4.90;;
26634;SDS011;14490;54.208;37.686;2022-07-23T12:58:39;5.68;;;5.18;;
26634;SDS011;14490;54.208;37.686;2022-07-23T13:01:09;5.80;;;5.40;;
26634;SDS011;14490;54.208;37.686;2022-07-23T13:03:55;5.47;;;4.43;;
26634;SDS011;14490;54.208;37.686;2022-07-23T13:06:25;5.53;;;5.05;;
26634;SDS011;14490;54.208;37.686;2022-07-23T13:08:53;5.35;;;4.47;;
26634;SDS011;14490;54.208;37.686;2022-07-23T13:11:21;5.28;;;4.65;;
26634;SDS011;14490;54.208;37.686;2022-07-23T13:13:50;4.78;;;4.28;;
26634;SDS011;14490;54.208;37.686;2022-07-23T13:16:18;5.00;;;4.05;;
26634;SDS011;14490;54.208;37.686;2022-07-23T13:18:46;4.53;;;4.22;;
26634;SDS011;14490;54.208;37.686;2022-07-23T13:21:14;5.25;;;4.75;;
26634;SDS011;14490;54.208;37.686;2022-07-23T13:23:42;5.53;;;4.78;;
26634;SDS011;14490;54.208;37.686;2022-07-23T13:26:09;5.40;;;4.40;;
26634;SDS011;14490;54.208;37.686;2022-07-23T13:28:38;5.25;;;4.80;;
26634;SDS011;14490;54.208;37.686;2022-07-23T13:31:08;7.82;;;4.65;;
26634;SDS011;14490;54.208;37.686;2022-07-23T13:33:36;5.47;;;5.07;;
26634;SDS011;14490;54.208;37.686;2022-07-23T13:36:05;5.75;;;5.25;;
26634;SDS011;14490;54.208;37.686;2022-07-23T13:38:33;5.40;;;5.00;;
26634;SDS011;14490;54.208;37.686;2022-07-23T13:41:01;4.65;;;4.28;;
26634;SDS011;14490;54.208;37.686;2022-07-23T13:43:29;4.90;;;4.50;;
26634;SDS011;14490;54.208;37.686;2022-07-23T13:45:57;7.65;;;5.47;;
26634;SDS011;14490;54.208;37.686;2022-07-23T13:48:26;5.05;;;4.65;;
26634;SDS011;14490;54.208;37.686;2022-07-23T13:50:55;5.15;;;4.75;;
26634;SDS011;14490;54.208;37.686;2022-07-23T13:53:23;6.13;;;5.35;;
26634;SDS011;14490;54.208;37.686;2022-07-23T13:55:51;4.93;;;4.53;;
26634;SDS011;14490;54.208;37.686;2022-07-23T13:58:21;6.60;;;5.93;;
26634;SDS011;14490;54.208;37.686;2022-07-23T14:00:50;4.80;;;4.40;;
26634;SDS011;14490;54.208;37.686;2022-07-23T14:05:50;6.10;;;4.38;;
26634;SDS011;14490;54.208;37.686;2022-07-23T14:08:19;5.75;;;5.25;;
26634;SDS011;14490;54.208;37.686;2022-07-23T14:10:47;6.00;;;5.03;;
26634;SDS011;14490;54.208;37.686;2022-07-23T14:13:15;8.02;;;4.90;;
26634;SDS011;14490;54.208;37.686;2022-07-23T14:15:43;5.28;;;4.35;;
26634;SDS011;14490;54.208;37.686;2022-07-23T14:18:11;8.20;;;5.05;;
26634;SDS011;14490;54.208;37.686;2022-07-23T14:20:39;5.95;;;5.35;;
26634;SDS011;14490;54.208;37.686;2022-07-23T14:23:08;7.45;;;5.80;;
26634;SDS011;14490;54.208;37.686;2022-07-23T14:25:36;7.82;;;4.97;;
26634;SDS011;14490;54.208;37.686;2022-07-23T14:28:04;4.95;;;4.55;;
26634;SDS011;14490;54.208;37.686;2022-07-23T14:30:32;6.32;;;5.45;;
26634;SDS011;14490;54.208;37.686;2022-07-23T14:33:00;6.75;;;4.53;;
26634;SDS011;14490;54.208;37.686;2022-07-23T14:35:31;8.05;;;5.50;;
26634;SDS011;14490;54.208;37.686;2022-07-23T14:38:25;6.82;;;6.05;;
26634;SDS011;14490;54.208;37.686;2022-07-23T14:40:55;7.53;;;6.43;;
26634;SDS011;14490;54.208;37.686;2022-07-23T14:43:23;7.13;;;5.85;;
26634;SDS011;14490;54.208;37.686;2022-07-23T14:45:51;6.32;;;4.60;;
26634;SDS011;14490;54.208;37.686;2022-07-23T14:48:19;8.25;;;5.72;;
26634;SDS011;14490;54.208;37.686;2022-07-23T14:50:46;7.60;;;5.50;;
26634;SDS011;14490;54.208;37.686;2022-07-23T14:53:14;6.65;;;5.72;;
26634;SDS011;14490;54.208;37.686;2022-07-23T14:55:44;5.40;;;4.95;;
26634;SDS011;14490;54.208;37.686;2022-07-23T14:58:12;5.65;;;4.70;;
26634;SDS011;14490;54.208;37.686;2022-07-23T15:00:39;5.15;;;4.65;;
26634;SDS011;14490;54.208;37.686;2022-07-23T15:03:07;6.30;;;4.82;;
26634;SDS011;14490;54.208;37.686;2022-07-23T15:05:35;5.97;;;4.82;;
26634;SDS011;14490;54.208;37.686;2022-07-23T15:08:03;6.38;;;4.85;;
26634;SDS011;14490;54.208;37.686;2022-07-23T15:10:31;4.80;;;4.40;;